sensor_id;sensor_type;location;lat;lon;timestamp;P1;durP1;ratioP1;P2;durP2;ratioP2
48613;SDS011;34408;51.426;5.444;2022-10-23T00:01:14;6.88;;;3.22;;
48613;SDS011;34408;51.426;5.444;2022-10-23T00:03:43;7.70;;;3.47;;
48613;SDS011;34408;51.426;5.444;2022-10-23T00:06:11;9.10;;;3.13;;
48613;SDS011;34408;51.426;5.444;2022-10-23T00:08:39;7.95;;;3.15;;
48613;SDS011;34408;51.426;5.444;2022-10-23T00:11:08;8.18;;;3.30;;
48613;SDS011;34408;51.426;5.444;2022-10-23T00:13:36;7.93;;;3.42;;
48613;SDS011;34408;51.426;5.444;2022-10-23T00:16:05;6.93;;;3.20;;
48613;SDS011;34408;51.426;5.444;2022-10-23T00:18:35;8.20;;;3.30;;
48613;SDS011;34408;51.426;5.444;2022-10-23T00:21:04;8.23;;;3.40;;
48613;SDS011;34408;51.426;5.444;2022-10-23T00:23:33;5.85;;;3.70;;
48613;SDS011;34408;51.426;5.444;2022-10-23T00:26:00;12.13;;;3.55;;
48613;SDS011;34408;51.426;5.444;2022-10-23T00:28:28;6.13;;;2.95;;
48613;SDS011;34408;51.426;5.444;2022-10-23T00:30:56;7.53;;;2.83;;
48613;SDS011;34408;51.426;5.444;2022-10-23T00:33:24;7.38;;;3.92;;
48613;SDS011;34408;51.426;5.444;2022-10-23T00:35:53;7.47;;;3.13;;
48613;SDS011;34408;51.426;5.444;2022-10-23T00:38:21;7.75;;;3.38;;
48613;SDS011;34408;51.426;5.444;2022-10-23T00:40:49;10.93;;;4.72;;
48613;SDS011;34408;51.426;5.444;2022-10-23T00:43:17;8.93;;;3.45;;
48613;SDS011;34408;51.426;5.444;2022-10-23T00:45:46;9.48;;;3.33;;
48613;SDS011;34408;51.426;5.444;2022-10-23T00:48:14;7.15;;;3.70;;
48613;SDS011;34408;51.426;5.444;2022-10-23T00:50:42;6.97;;;3.30;;
48613;SDS011;34408;51.426;5.444;2022-10-23T00:53:12;9.70;;;3.30;;
48613;SDS011;34408;51.426;5.444;2022-10-23T00:55:42;7.25;;;2.83;;
48613;SDS011;34408;51.426;5.444;2022-10-23T00:58:12;8.07;;;3.45;;
48613;SDS011;34408;51.426;5.444;2022-10-23T01:00:41;7.80;;;3.30;;
48613;SDS011;34408;51.426;5.444;2022-10-23T01:03:11;7.97;;;3.30;;
48613;SDS011;34408;51.426;5.444;2022-10-23T01:05:43;7.78;;;3.50;;
48613;SDS011;34408;51.426;5.444;2022-10-23T01:08:18;7.60;;;3.20;;
48613;SDS011;34408;51.426;5.444;2022-10-23T01:10:58;8.10;;;3.28;;
48613;SDS011;34408;51.426;5.444;2022-10-23T01:13:35;7.15;;;3.28;;
48613;SDS011;34408;51.426;5.444;2022-10-23T01:16:10;7.97;;;2.55;;
48613;SDS011;34408;51.426;5.444;2022-10-23T01:18:43;8.82;;;3.40;;
48613;SDS011;34408;51.426;5.444;2022-10-23T01:21:16;14.13;;;3.47;;
48613;SDS011;34408;51.426;5.444;2022-10-23T01:26:50;8.63;;;3.55;;
48613;SDS011;34408;51.426;5.444;2022-10-23T01:29:32;8.23;;;2.90;;
48613;SDS011;34408;51.426;5.444;2022-10-23T01:32:06;7.32;;;2.85;;
48613;SDS011;34408;51.426;5.444;2022-10-23T01:34:40;6.80;;;2.88;;
48613;SDS011;34408;51.426;5.444;2022-10-23T01:37:13;6.47;;;3.28;;
48613;SDS011;34408;51.426;5.444;2022-10-23T01:39:46;6.03;;;3.10;;
48613;SDS011;34408;51.426;5.444;2022-10-23T01:42:18;8.23;;;3.17;;
48613;SDS011;34408;51.426;5.444;2022-10-23T01:44:54;5.15;;;3.05;;
48613;SDS011;34408;51.426;5.444;2022-10-23T01:47:26;8.00;;;3.20;;
48613;SDS011;34408;51.426;5.444;2022-10-23T01:49:57;8.48;;;3.22;;
48613;SDS011;34408;51.426;5.444;2022-10-23T01:52:26;10.45;;;3.65;;
48613;SDS011;34408;51.426;5.444;2022-10-23T01:54:55;9.38;;;3.40;;
48613;SDS011;34408;51.426;5.444;2022-10-23T01:57:26;8.50;;;3.22;;
48613;SDS011;34408;51.426;5.444;2022-10-23T01:59:59;5.88;;;2.97;;
48613;SDS011;34408;51.426;5.444;2022-10-23T02:02:30;7.07;;;3.13;;
48613;SDS011;34408;51.426;5.444;2022-10-23T02:05:01;7.40;;;2.95;;
48613;SDS011;34408;51.426;5.444;2022-10-23T02:07:33;7.50;;;3.55;;
48613;SDS011;34408;51.426;5.444;2022-10-23T02:10:02;5.95;;;3.00;;
48613;SDS011;34408;51.426;5.444;2022-10-23T02:12:32;7.18;;;2.75;;
48613;SDS011;34408;51.426;5.444;2022-10-23T02:15:10;5.85;;;3.05;;
48613;SDS011;34408;51.426;5.444;2022-10-23T02:17:45;6.38;;;3.00;;
48613;SDS011;34408;51.426;5.444;2022-10-23T02:20:19;8.18;;;2.95;;
48613;SDS011;34408;51.426;5.444;2022-10-23T02:22:53;6.10;;;2.88;;
48613;SDS011;34408;51.426;5.444;2022-10-23T02:25:28;5.50;;;3.33;;
48613;SDS011;34408;51.426;5.444;2022-10-23T02:28:01;6.93;;;3.30;;
48613;SDS011;34408;51.426;5.444;2022-10-23T02:30:34;4.80;;;2.85;;
48613;SDS011;34408;51.426;5.444;2022-10-23T02:33:05;6.07;;;3.00;;
48613;SDS011;34408;51.426;5.444;2022-10-23T02:35:35;8.93;;;3.35;;
48613;SDS011;34408;51.426;5.444;2022-10-23T02:38:02;10.35;;;3.47;;
48613;SDS011;34408;51.426;5.444;2022-10-23T02:40:50;5.85;;;2.65;;
48613;SDS011;34408;51.426;5.444;2022-10-23T02:43:21;10.10;;;3.22;;
48613;SDS011;34408;51.426;5.444;2022-10-23T02:45:56;5.95;;;2.67;;
48613;SDS011;34408;51.426;5.444;2022-10-23T02:48:28;6.78;;;3.00;;
48613;SDS011;34408;51.426;5.444;2022-10-23T02:51:06;7.93;;;3.22;;
48613;SDS011;34408;51.426;5.444;2022-10-23T02:53:42;7.97;;;2.97;;
48613;SDS011;34408;51.426;5.444;2022-10-23T02:56:20;7.22;;;2.90;;
48613;SDS011;34408;51.426;5.444;2022-10-23T02:58:54;8.52;;;3.13;;
48613;SDS011;34408;51.426;5.444;2022-10-23T03:01:33;6.32;;;2.70;;
48613;SDS011;34408;51.426;5.444;2022-10-23T03:04:06;7.07;;;2.95;;
48613;SDS011;34408;51.426;5.444;2022-10-23T03:06:36;9.98;;;3.53;;
48613;SDS011;34408;51.426;5.444;2022-10-23T03:09:04;6.10;;;3.40;;
48613;SDS011;34408;51.426;5.444;2022-10-23T03:11:33;7.32;;;2.63;;
48613;SDS011;34408;51.426;5.444;2022-10-23T03:14:01;10.48;;;3.72;;
48613;SDS011;34408;51.426;5.444;2022-10-23T03:16:29;7.60;;;2.92;;
48613;SDS011;34408;51.426;5.444;2022-10-23T03:18:58;7.25;;;2.95;;
48613;SDS011;34408;51.426;5.444;2022-10-23T03:21:26;8.02;;;2.83;;
48613;SDS011;34408;51.426;5.444;2022-10-23T03:23:54;8.00;;;2.78;;
48613;SDS011;34408;51.426;5.444;2022-10-23T03:26:21;5.45;;;2.60;;
48613;SDS011;34408;51.426;5.444;2022-10-23T03:28:49;6.57;;;2.50;;
48613;SDS011;34408;51.426;5.444;2022-10-23T03:31:17;5.60;;;2.97;;
48613;SDS011;34408;51.426;5.444;2022-10-23T03:33:44;4.63;;;2.60;;
48613;SDS011;34408;51.426;5.444;2022-10-23T03:36:13;7.65;;;2.72;;
48613;SDS011;34408;51.426;5.444;2022-10-23T03:38:41;7.25;;;2.63;;
48613;SDS011;34408;51.426;5.444;2022-10-23T03:41:09;4.72;;;2.47;;
48613;SDS011;34408;51.426;5.444;2022-10-23T03:43:36;6.38;;;2.80;;
48613;SDS011;34408;51.426;5.444;2022-10-23T03:46:04;5.53;;;3.03;;
48613;SDS011;34408;51.426;5.444;2022-10-23T03:48:34;7.60;;;3.28;;
48613;SDS011;34408;51.426;5.444;2022-10-23T03:51:03;8.75;;;2.60;;
48613;SDS011;34408;51.426;5.444;2022-10-23T03:53:33;4.80;;;2.70;;
48613;SDS011;34408;51.426;5.444;2022-10-23T03:56:01;5.50;;;2.72;;
48613;SDS011;34408;51.426;5.444;2022-10-23T03:58:28;5.75;;;2.90;;
48613;SDS011;34408;51.426;5.444;2022-10-23T04:00:57;6.22;;;3.00;;
48613;SDS011;34408;51.426;5.444;2022-10-23T04:03:25;6.22;;;2.88;;
48613;SDS011;34408;51.426;5.444;2022-10-23T04:05:53;7.05;;;2.78;;
48613;SDS011;34408;51.426;5.444;2022-10-23T04:08:20;7.70;;;2.50;;
48613;SDS011;34408;51.426;5.444;2022-10-23T04:10:50;8.50;;;3.15;;
48613;SDS011;34408;51.426;5.444;2022-10-23T04:13:17;6.53;;;2.50;;
48613;SDS011;34408;51.426;5.444;2022-10-23T04:15:48;5.20;;;2.53;;
48613;SDS011;34408;51.426;5.444;2022-10-23T04:18:17;6.65;;;2.47;;
48613;SDS011;34408;51.426;5.444;2022-10-23T04:20:46;6.82;;;2.60;;
48613;SDS011;34408;51.426;5.444;2022-10-23T04:23:14;5.88;;;2.67;;
48613;SDS011;34408;51.426;5.444;2022-10-23T04:25:42;7.55;;;2.85;;
48613;SDS011;34408;51.426;5.444;2022-10-23T04:28:11;4.65;;;2.83;;
48613;SDS011;34408;51.426;5.444;2022-10-23T04:30:39;7.05;;;2.97;;
48613;SDS011;34408;51.426;5.444;2022-10-23T04:33:07;7.15;;;2.22;;
48613;SDS011;34408;51.426;5.444;2022-10-23T04:35:35;6.43;;;2.80;;
48613;SDS011;34408;51.426;5.444;2022-10-23T04:38:02;6.00;;;2.80;;
48613;SDS011;34408;51.426;5.444;2022-10-23T04:40:30;7.20;;;2.47;;
48613;SDS011;34408;51.426;5.444;2022-10-23T04:42:58;6.60;;;2.60;;
48613;SDS011;34408;51.426;5.444;2022-10-23T04:45:27;5.35;;;2.55;;
48613;SDS011;34408;51.426;5.444;2022-10-23T04:47:54;6.10;;;2.55;;
48613;SDS011;34408;51.426;5.444;2022-10-23T04:50:22;4.93;;;2.70;;
48613;SDS011;34408;51.426;5.444;2022-10-23T04:52:52;7.10;;;2.50;;
48613;SDS011;34408;51.426;5.444;2022-10-23T04:55:20;7.82;;;3.10;;
48613;SDS011;34408;51.426;5.444;2022-10-23T04:57:48;8.43;;;3.00;;
48613;SDS011;34408;51.426;5.444;2022-10-23T05:00:15;9.57;;;2.90;;
48613;SDS011;34408;51.426;5.444;2022-10-23T05:02:45;6.40;;;2.92;;
48613;SDS011;34408;51.426;5.444;2022-10-23T05:05:13;4.53;;;2.50;;
48613;SDS011;34408;51.426;5.444;2022-10-23T05:07:41;5.05;;;2.80;;
48613;SDS011;34408;51.426;5.444;2022-10-23T05:10:09;4.55;;;2.65;;
48613;SDS011;34408;51.426;5.444;2022-10-23T05:12:37;6.38;;;2.67;;
48613;SDS011;34408;51.426;5.444;2022-10-23T05:15:05;10.10;;;3.30;;
48613;SDS011;34408;51.426;5.444;2022-10-23T05:17:33;8.05;;;2.97;;
48613;SDS011;34408;51.426;5.444;2022-10-23T05:20:05;4.63;;;2.78;;
48613;SDS011;34408;51.426;5.444;2022-10-23T05:22:38;4.75;;;2.67;;
48613;SDS011;34408;51.426;5.444;2022-10-23T05:25:08;6.57;;;3.10;;
48613;SDS011;34408;51.426;5.444;2022-10-23T05:27:36;4.78;;;2.90;;
48613;SDS011;34408;51.426;5.444;2022-10-23T05:30:04;4.75;;;2.42;;
48613;SDS011;34408;51.426;5.444;2022-10-23T05:32:33;4.63;;;2.80;;
48613;SDS011;34408;51.426;5.444;2022-10-23T05:35:05;6.20;;;2.70;;
48613;SDS011;34408;51.426;5.444;2022-10-23T05:37:35;5.95;;;2.60;;
48613;SDS011;34408;51.426;5.444;2022-10-23T05:40:04;3.65;;;2.25;;
48613;SDS011;34408;51.426;5.444;2022-10-23T05:42:33;6.97;;;2.70;;
48613;SDS011;34408;51.426;5.444;2022-10-23T05:45:06;5.63;;;2.50;;
48613;SDS011;34408;51.426;5.444;2022-10-23T05:47:34;5.18;;;2.40;;
48613;SDS011;34408;51.426;5.444;2022-10-23T05:50:04;6.75;;;2.65;;
48613;SDS011;34408;51.426;5.444;2022-10-23T05:52:32;7.38;;;2.72;;
48613;SDS011;34408;51.426;5.444;2022-10-23T05:55:00;6.40;;;2.65;;
48613;SDS011;34408;51.426;5.444;2022-10-23T05:57:30;6.75;;;2.25;;
48613;SDS011;34408;51.426;5.444;2022-10-23T05:59:58;8.88;;;2.80;;
48613;SDS011;34408;51.426;5.444;2022-10-23T06:02:26;4.30;;;2.25;;
48613;SDS011;34408;51.426;5.444;2022-10-23T06:04:54;5.70;;;2.65;;
48613;SDS011;34408;51.426;5.444;2022-10-23T06:07:23;3.70;;;2.58;;
48613;SDS011;34408;51.426;5.444;2022-10-23T06:09:54;4.82;;;2.25;;
48613;SDS011;34408;51.426;5.444;2022-10-23T06:12:22;6.13;;;2.58;;
48613;SDS011;34408;51.426;5.444;2022-10-23T06:14:50;6.47;;;2.55;;
48613;SDS011;34408;51.426;5.444;2022-10-23T06:17:18;4.97;;;2.58;;
48613;SDS011;34408;51.426;5.444;2022-10-23T06:19:45;11.88;;;3.42;;
48613;SDS011;34408;51.426;5.444;2022-10-23T06:22:13;5.25;;;2.95;;
48613;SDS011;34408;51.426;5.444;2022-10-23T06:24:42;6.88;;;2.22;;
48613;SDS011;34408;51.426;5.444;2022-10-23T06:27:10;6.03;;;2.25;;
48613;SDS011;34408;51.426;5.444;2022-10-23T06:29:38;5.57;;;2.28;;
48613;SDS011;34408;51.426;5.444;2022-10-23T06:32:06;3.72;;;2.30;;
48613;SDS011;34408;51.426;5.444;2022-10-23T06:34:34;3.78;;;2.08;;
48613;SDS011;34408;51.426;5.444;2022-10-23T06:37:02;7.90;;;1.98;;
48613;SDS011;34408;51.426;5.444;2022-10-23T06:39:29;4.75;;;2.13;;
48613;SDS011;34408;51.426;5.444;2022-10-23T06:41:59;11.15;;;3.65;;
48613;SDS011;34408;51.426;5.444;2022-10-23T06:44:26;6.45;;;2.33;;
48613;SDS011;34408;51.426;5.444;2022-10-23T06:46:54;6.75;;;2.45;;
48613;SDS011;34408;51.426;5.444;2022-10-23T06:49:22;12.23;;;2.70;;
48613;SDS011;34408;51.426;5.444;2022-10-23T06:51:49;4.45;;;2.92;;
48613;SDS011;34408;51.426;5.444;2022-10-23T06:54:17;4.75;;;2.13;;
48613;SDS011;34408;51.426;5.444;2022-10-23T06:56:45;5.10;;;2.35;;
48613;SDS011;34408;51.426;5.444;2022-10-23T06:59:14;4.68;;;2.17;;
48613;SDS011;34408;51.426;5.444;2022-10-23T07:01:42;7.18;;;2.38;;
48613;SDS011;34408;51.426;5.444;2022-10-23T07:04:10;7.05;;;2.33;;
48613;SDS011;34408;51.426;5.444;2022-10-23T07:06:38;5.43;;;2.30;;
48613;SDS011;34408;51.426;5.444;2022-10-23T07:09:07;3.95;;;2.20;;
48613;SDS011;34408;51.426;5.444;2022-10-23T07:11:35;3.35;;;1.85;;
48613;SDS011;34408;51.426;5.444;2022-10-23T07:14:03;5.13;;;2.22;;
48613;SDS011;34408;51.426;5.444;2022-10-23T07:16:32;11.77;;;2.42;;
48613;SDS011;34408;51.426;5.444;2022-10-23T07:19:00;8.15;;;2.60;;
48613;SDS011;34408;51.426;5.444;2022-10-23T07:21:28;3.22;;;1.83;;
48613;SDS011;34408;51.426;5.444;2022-10-23T07:23:57;6.03;;;2.45;;
48613;SDS011;34408;51.426;5.444;2022-10-23T07:26:25;4.13;;;2.10;;
48613;SDS011;34408;51.426;5.444;2022-10-23T07:28:53;7.75;;;2.47;;
48613;SDS011;34408;51.426;5.444;2022-10-23T07:31:22;3.63;;;2.03;;
48613;SDS011;34408;51.426;5.444;2022-10-23T07:33:55;6.20;;;2.50;;
48613;SDS011;34408;51.426;5.444;2022-10-23T07:36:22;5.07;;;2.42;;
48613;SDS011;34408;51.426;5.444;2022-10-23T07:38:50;3.72;;;1.95;;
48613;SDS011;34408;51.426;5.444;2022-10-23T07:41:18;9.07;;;2.20;;
48613;SDS011;34408;51.426;5.444;2022-10-23T07:43:46;4.28;;;2.10;;
48613;SDS011;34408;51.426;5.444;2022-10-23T07:46:13;4.85;;;1.98;;
48613;SDS011;34408;51.426;5.444;2022-10-23T07:48:41;3.72;;;2.00;;
48613;SDS011;34408;51.426;5.444;2022-10-23T07:51:11;4.57;;;2.08;;
48613;SDS011;34408;51.426;5.444;2022-10-23T07:53:40;4.55;;;1.95;;
48613;SDS011;34408;51.426;5.444;2022-10-23T07:56:10;4.80;;;2.20;;
48613;SDS011;34408;51.426;5.444;2022-10-23T07:58:39;7.15;;;1.85;;
48613;SDS011;34408;51.426;5.444;2022-10-23T08:01:12;3.20;;;1.73;;
48613;SDS011;34408;51.426;5.444;2022-10-23T08:03:43;5.05;;;2.28;;
48613;SDS011;34408;51.426;5.444;2022-10-23T08:06:13;3.97;;;2.20;;
48613;SDS011;34408;51.426;5.444;2022-10-23T08:08:41;5.35;;;2.10;;
48613;SDS011;34408;51.426;5.444;2022-10-23T08:11:12;5.95;;;2.05;;
48613;SDS011;34408;51.426;5.444;2022-10-23T08:13:41;4.60;;;2.10;;
48613;SDS011;34408;51.426;5.444;2022-10-23T08:16:09;3.80;;;1.70;;
48613;SDS011;34408;51.426;5.444;2022-10-23T08:18:37;3.60;;;1.70;;
48613;SDS011;34408;51.426;5.444;2022-10-23T08:21:06;4.35;;;2.15;;
48613;SDS011;34408;51.426;5.444;2022-10-23T08:23:35;4.78;;;1.88;;
48613;SDS011;34408;51.426;5.444;2022-10-23T08:26:04;5.70;;;2.05;;
48613;SDS011;34408;51.426;5.444;2022-10-23T08:28:33;5.93;;;2.00;;
48613;SDS011;34408;51.426;5.444;2022-10-23T08:31:05;5.55;;;2.13;;
48613;SDS011;34408;51.426;5.444;2022-10-23T08:33:34;4.53;;;1.80;;
48613;SDS011;34408;51.426;5.444;2022-10-23T08:36:02;3.83;;;2.13;;
48613;SDS011;34408;51.426;5.444;2022-10-23T08:38:30;3.78;;;1.50;;
48613;SDS011;34408;51.426;5.444;2022-10-23T08:41:00;4.35;;;1.75;;
48613;SDS011;34408;51.426;5.444;2022-10-23T08:43:29;4.30;;;1.85;;
48613;SDS011;34408;51.426;5.444;2022-10-23T08:46:04;2.63;;;1.75;;
48613;SDS011;34408;51.426;5.444;2022-10-23T08:48:37;5.55;;;2.22;;
48613;SDS011;34408;51.426;5.444;2022-10-23T08:51:10;4.63;;;2.03;;
48613;SDS011;34408;51.426;5.444;2022-10-23T08:53:43;4.22;;;1.98;;
48613;SDS011;34408;51.426;5.444;2022-10-23T08:56:21;7.30;;;2.30;;
48613;SDS011;34408;51.426;5.444;2022-10-23T08:58:54;4.07;;;1.95;;
48613;SDS011;34408;51.426;5.444;2022-10-23T09:01:29;3.20;;;1.80;;
48613;SDS011;34408;51.426;5.444;2022-10-23T09:04:02;4.25;;;2.05;;
48613;SDS011;34408;51.426;5.444;2022-10-23T09:06:33;7.20;;;1.77;;
48613;SDS011;34408;51.426;5.444;2022-10-23T09:09:09;5.57;;;1.80;;
48613;SDS011;34408;51.426;5.444;2022-10-23T09:11:52;5.63;;;2.17;;
48613;SDS011;34408;51.426;5.444;2022-10-23T09:14:39;8.90;;;1.90;;
48613;SDS011;34408;51.426;5.444;2022-10-23T09:17:19;3.67;;;1.92;;
48613;SDS011;34408;51.426;5.444;2022-10-23T09:19:53;4.28;;;1.90;;
48613;SDS011;34408;51.426;5.444;2022-10-23T09:22:26;4.25;;;2.03;;
48613;SDS011;34408;51.426;5.444;2022-10-23T09:24:54;4.70;;;1.95;;
48613;SDS011;34408;51.426;5.444;2022-10-23T09:27:23;7.47;;;1.90;;
48613;SDS011;34408;51.426;5.444;2022-10-23T09:29:52;3.47;;;1.80;;
48613;SDS011;34408;51.426;5.444;2022-10-23T09:32:31;4.65;;;2.00;;
48613;SDS011;34408;51.426;5.444;2022-10-23T09:34:59;5.40;;;2.00;;
48613;SDS011;34408;51.426;5.444;2022-10-23T09:37:27;5.85;;;2.45;;
48613;SDS011;34408;51.426;5.444;2022-10-23T09:40:03;3.17;;;1.80;;
48613;SDS011;34408;51.426;5.444;2022-10-23T09:42:56;6.95;;;1.85;;
48613;SDS011;34408;51.426;5.444;2022-10-23T09:45:27;6.85;;;2.58;;
48613;SDS011;34408;51.426;5.444;2022-10-23T09:48:10;7.60;;;2.35;;
48613;SDS011;34408;51.426;5.444;2022-10-23T09:50:46;3.35;;;1.70;;
48613;SDS011;34408;51.426;5.444;2022-10-23T09:53:16;8.93;;;2.10;;
48613;SDS011;34408;51.426;5.444;2022-10-23T09:55:51;2.95;;;2.10;;
48613;SDS011;34408;51.426;5.444;2022-10-23T09:58:23;7.88;;;1.98;;
48613;SDS011;34408;51.426;5.444;2022-10-23T10:00:56;3.53;;;1.70;;
48613;SDS011;34408;51.426;5.444;2022-10-23T10:03:24;4.40;;;2.20;;
48613;SDS011;34408;51.426;5.444;2022-10-23T10:05:53;5.13;;;1.98;;
48613;SDS011;34408;51.426;5.444;2022-10-23T10:08:24;3.67;;;1.50;;
48613;SDS011;34408;51.426;5.444;2022-10-23T10:10:59;3.70;;;2.42;;
48613;SDS011;34408;51.426;5.444;2022-10-23T10:13:36;5.88;;;2.05;;
48613;SDS011;34408;51.426;5.444;2022-10-23T10:16:19;3.72;;;2.00;;
48613;SDS011;34408;51.426;5.444;2022-10-23T10:18:58;3.20;;;1.95;;
48613;SDS011;34408;51.426;5.444;2022-10-23T10:21:34;3.53;;;1.95;;
48613;SDS011;34408;51.426;5.444;2022-10-23T10:24:07;5.28;;;1.90;;
48613;SDS011;34408;51.426;5.444;2022-10-23T10:26:43;4.38;;;2.03;;
48613;SDS011;34408;51.426;5.444;2022-10-23T10:29:22;4.00;;;1.60;;
48613;SDS011;34408;51.426;5.444;2022-10-23T10:32:05;4.70;;;2.05;;
48613;SDS011;34408;51.426;5.444;2022-10-23T10:34:45;6.75;;;2.03;;
48613;SDS011;34408;51.426;5.444;2022-10-23T10:37:20;6.75;;;2.25;;
48613;SDS011;34408;51.426;5.444;2022-10-23T10:40:02;4.97;;;1.83;;
48613;SDS011;34408;51.426;5.444;2022-10-23T10:42:42;3.78;;;2.08;;
48613;SDS011;34408;51.426;5.444;2022-10-23T10:45:27;4.95;;;1.65;;
48613;SDS011;34408;51.426;5.444;2022-10-23T10:48:15;6.35;;;2.30;;
48613;SDS011;34408;51.426;5.444;2022-10-23T10:50:52;5.45;;;1.85;;
48613;SDS011;34408;51.426;5.444;2022-10-23T10:53:25;7.22;;;2.55;;
48613;SDS011;34408;51.426;5.444;2022-10-23T10:55:57;4.72;;;2.17;;
48613;SDS011;34408;51.426;5.444;2022-10-23T10:58:29;4.43;;;2.25;;
48613;SDS011;34408;51.426;5.444;2022-10-23T11:01:07;7.67;;;2.63;;
48613;SDS011;34408;51.426;5.444;2022-10-23T11:03:44;5.10;;;2.13;;
48613;SDS011;34408;51.426;5.444;2022-10-23T11:06:15;10.77;;;2.10;;
48613;SDS011;34408;51.426;5.444;2022-10-23T11:08:47;7.15;;;2.17;;
48613;SDS011;34408;51.426;5.444;2022-10-23T11:11:30;5.22;;;2.20;;
48613;SDS011;34408;51.426;5.444;2022-10-23T11:14:02;6.57;;;2.00;;
48613;SDS011;34408;51.426;5.444;2022-10-23T11:16:32;4.40;;;1.92;;
48613;SDS011;34408;51.426;5.444;2022-10-23T11:19:04;4.22;;;2.10;;
48613;SDS011;34408;51.426;5.444;2022-10-23T11:21:40;3.67;;;1.90;;
48613;SDS011;34408;51.426;5.444;2022-10-23T11:27:25;4.35;;;1.80;;
48613;SDS011;34408;51.426;5.444;2022-10-23T11:30:18;8.10;;;2.25;;
48613;SDS011;34408;51.426;5.444;2022-10-23T11:32:54;3.83;;;2.17;;
48613;SDS011;34408;51.426;5.444;2022-10-23T11:38:23;5.30;;;2.00;;
48613;SDS011;34408;51.426;5.444;2022-10-23T11:40:55;7.88;;;2.10;;
48613;SDS011;34408;51.426;5.444;2022-10-23T11:43:28;5.70;;;2.03;;
48613;SDS011;34408;51.426;5.444;2022-10-23T11:45:58;5.22;;;1.98;;
48613;SDS011;34408;51.426;5.444;2022-10-23T11:48:40;5.63;;;2.53;;
48613;SDS011;34408;51.426;5.444;2022-10-23T11:54:05;6.68;;;2.13;;
48613;SDS011;34408;51.426;5.444;2022-10-23T11:56:34;6.63;;;2.33;;
48613;SDS011;34408;51.426;5.444;2022-10-23T11:59:17;5.63;;;1.92;;
48613;SDS011;34408;51.426;5.444;2022-10-23T12:01:49;4.30;;;2.28;;
48613;SDS011;34408;51.426;5.444;2022-10-23T12:04:22;7.68;;;2.30;;
48613;SDS011;34408;51.426;5.444;2022-10-23T12:06:53;5.78;;;2.60;;
48613;SDS011;34408;51.426;5.444;2022-10-23T12:09:29;6.63;;;2.70;;
48613;SDS011;34408;51.426;5.444;2022-10-23T12:12:11;8.73;;;2.80;;
48613;SDS011;34408;51.426;5.444;2022-10-23T12:14:42;9.35;;;3.50;;
48613;SDS011;34408;51.426;5.444;2022-10-23T12:20:03;8.20;;;3.40;;
48613;SDS011;34408;51.426;5.444;2022-10-23T12:22:46;6.68;;;2.92;;
48613;SDS011;34408;51.426;5.444;2022-10-23T12:25:26;9.70;;;2.67;;
48613;SDS011;34408;51.426;5.444;2022-10-23T12:28:04;10.60;;;3.08;;
48613;SDS011;34408;51.426;5.444;2022-10-23T12:30:41;7.50;;;2.70;;
48613;SDS011;34408;51.426;5.444;2022-10-23T12:33:16;9.48;;;2.33;;
48613;SDS011;34408;51.426;5.444;2022-10-23T12:36:08;8.73;;;3.60;;
48613;SDS011;34408;51.426;5.444;2022-10-23T12:38:54;6.68;;;2.40;;
48613;SDS011;34408;51.426;5.444;2022-10-23T12:41:24;8.85;;;2.70;;
48613;SDS011;34408;51.426;5.444;2022-10-23T12:43:54;6.70;;;2.30;;
48613;SDS011;34408;51.426;5.444;2022-10-23T12:46:27;7.15;;;2.35;;
48613;SDS011;34408;51.426;5.444;2022-10-23T12:48:58;10.85;;;2.97;;
48613;SDS011;34408;51.426;5.444;2022-10-23T12:51:29;8.57;;;3.55;;
48613;SDS011;34408;51.426;5.444;2022-10-23T12:53:58;4.88;;;2.28;;
48613;SDS011;34408;51.426;5.444;2022-10-23T12:56:27;5.60;;;2.45;;
48613;SDS011;34408;51.426;5.444;2022-10-23T12:59:01;7.32;;;2.55;;
48613;SDS011;34408;51.426;5.444;2022-10-23T13:01:29;4.90;;;2.47;;
48613;SDS011;34408;51.426;5.444;2022-10-23T13:04:00;5.82;;;2.35;;
48613;SDS011;34408;51.426;5.444;2022-10-23T13:06:35;4.63;;;2.00;;
48613;SDS011;34408;51.426;5.444;2022-10-23T13:09:04;9.52;;;1.98;;
48613;SDS011;34408;51.426;5.444;2022-10-23T13:11:33;4.80;;;1.98;;
48613;SDS011;34408;51.426;5.444;2022-10-23T13:14:01;7.28;;;2.00;;
48613;SDS011;34408;51.426;5.444;2022-10-23T13:16:37;5.07;;;1.92;;
48613;SDS011;34408;51.426;5.444;2022-10-23T13:19:05;3.92;;;1.83;;
48613;SDS011;34408;51.426;5.444;2022-10-23T13:21:33;5.03;;;1.77;;
48613;SDS011;34408;51.426;5.444;2022-10-23T13:24:02;5.80;;;2.22;;
48613;SDS011;34408;51.426;5.444;2022-10-23T13:26:31;3.38;;;2.00;;
48613;SDS011;34408;51.426;5.444;2022-10-23T13:29:00;7.82;;;1.67;;
48613;SDS011;34408;51.426;5.444;2022-10-23T13:31:34;5.32;;;2.70;;
48613;SDS011;34408;51.426;5.444;2022-10-23T13:34:04;7.28;;;1.77;;
48613;SDS011;34408;51.426;5.444;2022-10-23T13:36:48;6.00;;;2.25;;
48613;SDS011;34408;51.426;5.444;2022-10-23T13:39:23;7.85;;;2.10;;
48613;SDS011;34408;51.426;5.444;2022-10-23T13:41:52;5.47;;;2.40;;
48613;SDS011;34408;51.426;5.444;2022-10-23T13:44:20;6.07;;;2.17;;
48613;SDS011;34408;51.426;5.444;2022-10-23T13:46:50;4.30;;;1.92;;
48613;SDS011;34408;51.426;5.444;2022-10-23T13:49:18;4.60;;;2.13;;
48613;SDS011;34408;51.426;5.444;2022-10-23T13:51:47;5.65;;;2.42;;
48613;SDS011;34408;51.426;5.444;2022-10-23T13:54:17;7.30;;;2.13;;
48613;SDS011;34408;51.426;5.444;2022-10-23T13:56:47;8.15;;;3.55;;
48613;SDS011;34408;51.426;5.444;2022-10-23T13:59:15;4.30;;;2.17;;
48613;SDS011;34408;51.426;5.444;2022-10-23T14:01:44;4.05;;;2.13;;
48613;SDS011;34408;51.426;5.444;2022-10-23T14:04:13;5.53;;;2.58;;
48613;SDS011;34408;51.426;5.444;2022-10-23T14:06:42;3.97;;;1.83;;
48613;SDS011;34408;51.426;5.444;2022-10-23T14:09:11;9.02;;;2.33;;
48613;SDS011;34408;51.426;5.444;2022-10-23T14:11:39;7.15;;;2.25;;
48613;SDS011;34408;51.426;5.444;2022-10-23T14:14:08;6.57;;;2.53;;
48613;SDS011;34408;51.426;5.444;2022-10-23T14:16:36;4.95;;;1.92;;
48613;SDS011;34408;51.426;5.444;2022-10-23T14:19:04;3.55;;;2.00;;
48613;SDS011;34408;51.426;5.444;2022-10-23T14:21:33;6.05;;;2.47;;
48613;SDS011;34408;51.426;5.444;2022-10-23T14:24:00;4.43;;;2.00;;
48613;SDS011;34408;51.426;5.444;2022-10-23T14:26:28;7.43;;;2.47;;
48613;SDS011;34408;51.426;5.444;2022-10-23T14:28:58;5.78;;;2.30;;
48613;SDS011;34408;51.426;5.444;2022-10-23T14:31:35;8.02;;;2.55;;
48613;SDS011;34408;51.426;5.444;2022-10-23T14:34:03;4.50;;;2.13;;
48613;SDS011;34408;51.426;5.444;2022-10-23T14:36:30;4.88;;;2.40;;
48613;SDS011;34408;51.426;5.444;2022-10-23T14:39:15;9.80;;;2.42;;
48613;SDS011;34408;51.426;5.444;2022-10-23T14:41:43;3.28;;;2.10;;
48613;SDS011;34408;51.426;5.444;2022-10-23T14:44:11;3.97;;;2.10;;
48613;SDS011;34408;51.426;5.444;2022-10-23T14:46:40;5.65;;;2.05;;
48613;SDS011;34408;51.426;5.444;2022-10-23T14:49:08;4.72;;;1.80;;
48613;SDS011;34408;51.426;5.444;2022-10-23T14:51:36;3.83;;;2.13;;
48613;SDS011;34408;51.426;5.444;2022-10-23T14:54:04;8.50;;;2.65;;
48613;SDS011;34408;51.426;5.444;2022-10-23T14:56:34;9.80;;;2.65;;
48613;SDS011;34408;51.426;5.444;2022-10-23T14:59:03;7.57;;;2.85;;
48613;SDS011;34408;51.426;5.444;2022-10-23T15:01:32;6.50;;;2.60;;
48613;SDS011;34408;51.426;5.444;2022-10-23T15:04:03;7.15;;;2.60;;
48613;SDS011;34408;51.426;5.444;2022-10-23T15:06:32;10.48;;;3.42;;
48613;SDS011;34408;51.426;5.444;2022-10-23T15:09:01;6.18;;;2.60;;
48613;SDS011;34408;51.426;5.444;2022-10-23T15:11:29;10.68;;;2.53;;
48613;SDS011;34408;51.426;5.444;2022-10-23T15:13:57;5.15;;;2.05;;
48613;SDS011;34408;51.426;5.444;2022-10-23T15:16:25;5.68;;;2.40;;
48613;SDS011;34408;51.426;5.444;2022-10-23T15:18:53;7.65;;;2.40;;
48613;SDS011;34408;51.426;5.444;2022-10-23T15:21:22;9.68;;;2.67;;
48613;SDS011;34408;51.426;5.444;2022-10-23T15:23:50;10.48;;;2.92;;
48613;SDS011;34408;51.426;5.444;2022-10-23T15:26:20;5.82;;;2.40;;